Time;durP1;ratioP1;P1;durP2;ratioP2;P2;SDS_P1;SDS_P2;PMS_P1;PMS_P2;Temp;Humidity;BMP_temperature;BMP_pressure;BME280_temperature;BME280_humidity;BME280_pressure;Samples;Min_cycle;Max_cycle;Signal;HPM_P1;HPM_P2
2024/01/21 00:02:21;;;;;;;11.50;3.47;;;;;;;-7.88;69.44;102125.06;5019393;28;20444;-85
2024/01/21 00:04:48;;;;;;;10.63;2.95;;;;;;;-7.87;68.86;102131.91;5038992;28;20424;-85
2024/01/21 00:07:15;;;;;;;7.25;2.55;;;;;;;-7.84;68.97;102129.59;5019995;28;20503;-85
2024/01/21 00:09:42;;;;;;;8.68;2.33;;;;;;;-7.83;68.96;102123.72;5031270;28;20080;-85
2024/01/21 00:12:09;;;;;;;5.00;1.95;;;;;;;-7.81;69.48;102115.44;5024527;28;20579;-84
2024/01/21 00:14:37;;;;;;;7.40;2.45;;;;;;;-7.78;68.99;102112.25;5026512;28;20111;-85
2024/01/21 00:17:07;;;;;;;5.40;2.47;;;;;;;-7.76;68.91;102115.78;5035473;28;20162;-85
2024/01/21 00:19:35;;;;;;;8.32;2.20;;;;;;;-7.75;69.02;102112.47;5021563;28;20046;-85
2024/01/21 00:22:02;;;;;;;7.18;2.38;;;;;;;-7.72;69.19;102110.16;5008789;28;20136;-85
2024/01/21 00:24:29;;;;;;;9.65;2.55;;;;;;;-7.71;69.37;102117.00;5020216;28;20149;-85
2024/01/21 00:26:56;;;;;;;8.20;1.52;;;;;;;-7.70;69.17;102115.34;5014957;28;20574;-85
2024/01/21 00:29:23;;;;;;;7.40;2.35;;;;;;;-7.67;69.54;102115.56;5027657;28;20129;-84
2024/01/21 00:31:50;;;;;;;11.82;2.08;;;;;;;-7.64;69.81;102116.66;5017670;28;20129;-85
2024/01/21 00:34:17;;;;;;;7.18;2.03;;;;;;;-7.61;70.48;102114.34;5026594;28;20121;-84
2024/01/21 00:36:45;;;;;;;12.30;4.03;;;;;;;-7.59;70.60;102107.72;5019811;28;20459;-85
2024/01/21 00:39:12;;;;;;;8.57;1.50;;;;;;;-7.53;70.33;102094.56;5022887;28;20133;-85
2024/01/21 00:41:39;;;;;;;7.40;2.63;;;;;;;-7.49;70.65;102088.03;5026324;28;20132;-85
2024/01/21 00:44:06;;;;;;;5.88;1.90;;;;;;;-7.43;71.36;102086.84;5027201;28;20484;-85
2024/01/21 00:46:33;;;;;;;9.45;2.20;;;;;;;-7.38;71.86;102084.59;5018705;28;20129;-85
2024/01/21 00:49:00;;;;;;;9.75;2.20;;;;;;;-7.32;72.00;102082.50;5030326;28;20132;-84
2024/01/21 00:51:26;;;;;;;6.80;2.47;;;;;;;-7.27;71.67;102076.06;5027272;28;20060;-85
2024/01/21 00:53:55;;;;;;;13.63;2.58;;;;;;;-7.22;71.90;102064.56;5029129;28;20466;-85
2024/01/21 00:56:22;;;;;;;6.45;1.30;;;;;;;-7.17;72.12;102063.25;5026937;28;20105;-85
2024/01/21 00:58:49;;;;;;;8.48;2.30;;;;;;;-7.11;72.01;102061.13;5029666;28;20137;-84
2024/01/21 01:01:16;;;;;;;11.90;2.22;;;;;;;-7.04;72.53;102056.44;5033829;28;20148;-77
2024/01/21 01:03:44;;;;;;;7.20;2.22;;;;;;;-6.99;72.45;102061.06;5027146;28;20049;-78
2024/01/21 01:06:11;;;;;;;11.07;1.75;;;;;;;-6.93;72.86;102053.81;5016676;28;20088;-78
2024/01/21 01:08:38;;;;;;;8.30;1.33;;;;;;;-6.86;72.65;102052.59;5022090;28;20606;-78
2024/01/21 01:11:06;;;;;;;9.15;2.90;;;;;;;-6.80;72.87;102050.47;5028886;28;20088;-77
2024/01/21 01:13:33;;;;;;;4.63;1.15;;;;;;;-6.74;72.95;102058.53;5027485;28;20076;-77
2024/01/21 01:16:00;;;;;;;5.45;2.13;;;;;;;-6.66;73.22;102056.50;5027690;28;20081;-77
2024/01/21 01:18:27;;;;;;;8.27;1.77;;;;;;;-6.61;73.65;102055.13;5023754;28;20045;-78
2024/01/21 01:20:54;;;;;;;3.72;1.13;;;;;;;-6.55;73.44;102060.66;5028324;28;20494;-77
2024/01/21 01:23:21;;;;;;;7.07;1.70;;;;;;;-6.50;73.82;102048.22;5024787;28;20045;-78
2024/01/21 01:25:48;;;;;;;16.42;1.75;;;;;;;-6.44;73.68;102049.50;5025145;28;20551;-78
2024/01/21 01:28:17;;;;;;;3.95;0.85;;;;;;;-6.36;74.17;102047.47;5023838;28;20046;-77
2024/01/21 01:30:44;;;;;;;6.60;1.35;;;;;;;-6.31;74.00;102035.94;5017065;28;20137;-77
2024/01/21 01:33:11;;;;;;;8.80;2.53;;;;;;;-6.25;74.32;102043.97;5015556;28;20125;-77
2024/01/21 01:35:38;;;;;;;4.13;1.02;;;;;;;-6.21;74.86;102030.66;5024053;28;20686;-77
2024/01/21 01:38:06;;;;;;;11.15;1.27;;;;;;;-6.13;75.52;102030.28;5023034;28;20124;-78
2024/01/21 01:40:33;;;;;;;4.53;0.50;;;;;;;-6.10;75.23;102025.38;5029212;28;20045;-78
2024/01/21 01:43:02;;;;;;;8.82;1.23;;;;;;;-6.00;75.45;102035.38;5020296;28;20054;-77
2024/01/21 01:45:30;;;;;;;5.40;1.10;;;;;;;-5.94;75.61;102033.22;5026901;28;20053;-77
2024/01/21 01:47:59;;;;;;;13.35;1.17;;;;;;;-5.88;75.19;102020.88;5027913;28;20041;-77
2024/01/21 01:50:26;;;;;;;6.47;1.20;;;;;;;-5.82;75.50;102021.25;5025000;28;20132;-75
2024/01/21 01:52:54;;;;;;;6.40;0.77;;;;;;;-5.76;75.34;102024.19;5018206;28;20084;-74
2024/01/21 01:55:21;;;;;;;1.30;0.57;;;;;;;-5.70;75.74;102008.41;5020753;28;20130;-74
2024/01/21 01:57:49;;;;;;;5.60;0.60;;;;;;;-5.63;75.88;102009.69;5019228;28;20172;-74
2024/01/21 02:00:17;;;;;;;2.70;0.80;;;;;;;-5.58;75.84;102008.31;5019726;28;20037;-75
2024/01/21 02:02:45;;;;;;;4.00;1.02;;;;;;;-5.52;75.79;102011.25;5020836;28;20053;-74
2024/01/21 02:05:12;;;;;;;3.33;0.40;;;;;;;-5.47;75.87;102014.94;5021136;28;20560;-75
2024/01/21 02:07:39;;;;;;;7.78;0.80;;;;;;;-5.41;76.10;102020.44;5017212;28;20128;-75
2024/01/21 02:10:07;;;;;;;5.85;0.98;;;;;;;-5.35;76.39;102018.28;5019065;28;20092;-77
2024/01/21 02:12:34;;;;;;;6.57;1.13;;;;;;;-5.28;76.32;102016.09;5021679;28;20129;-75
2024/01/21 02:15:02;;;;;;;4.28;0.50;;;;;;;-5.24;75.87;102015.47;5021993;28;20128;-76
2024/01/21 02:17:29;;;;;;;3.88;0.98;;;;;;;-5.19;76.39;102009.88;5018641;28;20046;-77
2024/01/21 02:19:57;;;;;;;3.10;0.85;;;;;;;-5.13;76.62;101999.16;5024755;28;20491;-77
2024/01/21 02:22:27;;;;;;;4.50;0.47;;;;;;;-5.08;76.23;101995.22;5016693;28;20117;-77
2024/01/21 02:24:55;;;;;;;1.10;0.40;;;;;;;-5.02;76.41;102000.69;5019682;28;20132;-76
2024/01/21 02:27:22;;;;;;;2.15;0.75;;;;;;;-4.96;76.51;101988.28;5012584;28;20152;-77
2024/01/21 02:29:49;;;;;;;7.53;0.75;;;;;;;-4.93;76.70;101988.50;5020944;28;20149;-76
2024/01/21 02:32:16;;;;;;;3.45;0.40;;;;;;;-4.87;76.61;101988.88;5020540;28;21255;-77
2024/01/21 02:34:43;;;;;;;5.28;0.40;;;;;;;-4.80;76.79;101985.00;5011232;28;20117;-76
2024/01/21 02:37:10;;;;;;;2.17;0.40;;;;;;;-4.75;76.99;101972.50;5016019;28;20547;-77
2024/01/21 02:39:37;;;;;;;1.65;0.40;;;;;;;-4.71;77.02;101974.44;5015505;28;20522;-76
2024/01/21 02:42:06;;;;;;;4.72;0.85;;;;;;;-4.65;76.76;101964.56;5015599;28;20164;-77
2024/01/21 02:44:33;;;;;;;0.90;0.30;;;;;;;-4.60;76.89;101973.38;5009179;28;20125;-77
2024/01/21 02:46:59;;;;;;;7.95;0.68;;;;;;;-4.55;76.82;101956.66;5017840;28;20130;-76
2024/01/21 02:49:28;;;;;;;2.10;0.38;;;;;;;-4.51;77.19;101952.59;5015618;28;20162;-76
2024/01/21 02:51:55;;;;;;;4.18;0.80;;;;;;;-4.47;77.01;101950.31;5017911;28;20079;-77
2024/01/21 02:54:22;;;;;;;3.55;0.40;;;;;;;-4.40;77.04;101941.31;5012930;28;20572;-76
2024/01/21 02:56:49;;;;;;;5.13;0.57;;;;;;;-4.35;76.99;101933.94;5019564;28;20536;-76
2024/01/21 02:59:18;;;;;;;4.00;0.80;;;;;;;-4.32;77.16;101926.44;5014082;28;20128;-77
2024/01/21 03:01:45;;;;;;;1.92;0.50;;;;;;;-4.26;77.10;101914.88;5018493;28;20140;-77
2024/01/21 03:04:12;;;;;;;2.70;0.52;;;;;;;-4.23;77.60;101919.28;5023254;28;20125;-78
2024/01/21 03:06:39;;;;;;;2.80;0.63;;;;;;;-4.18;77.42;101920.44;5015623;28;20496;-77
2024/01/21 03:09:06;;;;;;;8.27;0.60;;;;;;;-4.12;77.21;101909.66;5023391;28;20149;-77
2024/01/21 03:11:33;;;;;;;2.88;0.50;;;;;;;-4.08;77.41;101915.00;5013738;28;20785;-78
2024/01/21 03:14:00;;;;;;;4.85;0.50;;;;;;;-4.04;76.78;101906.72;5011091;28;20120;-77
2024/01/21 03:16:29;;;;;;;2.70;0.70;;;;;;;-4.01;77.59;101903.47;5012180;28;20566;-77
2024/01/21 03:18:56;;;;;;;6.07;0.40;;;;;;;-4.01;76.96;101893.25;5016117;28;20121;-76
2024/01/21 03:21:23;;;;;;;3.67;0.80;;;;;;;-3.91;77.35;101892.06;5020418;28;20500;-85
2024/01/21 03:23:50;;;;;;;5.82;1.10;;;;;;;-3.87;77.70;101883.75;5025827;28;20054;-85
2024/01/21 03:26:17;;;;;;;1.17;0.45;;;;;;;-3.84;76.77;101878.81;5024163;28;20068;-85
2024/01/21 03:28:44;;;;;;;4.00;0.80;;;;;;;-3.80;77.59;101881.59;5023349;28;20136;-84
2024/01/21 03:31:11;;;;;;;5.53;0.80;;;;;;;-3.75;77.51;101881.84;5015837;28;20137;-85
2024/01/21 03:33:39;;;;;;;6.60;0.63;;;;;;;-3.70;77.67;101875.31;5019195;28;20479;-85
2024/01/21 03:36:07;;;;;;;5.47;0.98;;;;;;;-3.67;77.90;101875.47;5024942;28;20129;-84
2024/01/21 03:38:34;;;;;;;3.00;0.32;;;;;;;-3.62;77.71;101879.16;5012894;28;20191;-85
2024/01/21 03:41:01;;;;;;;3.08;0.40;;;;;;;-3.57;77.46;101875.13;5013153;28;20117;-85
2024/01/21 03:43:27;;;;;;;4.00;0.57;;;;;;;-3.53;77.57;101871.97;5024415;28;20129;-85
2024/01/21 03:45:54;;;;;;;4.35;0.98;;;;;;;-3.47;78.40;101867.97;5008852;28;20172;-85
2024/01/21 03:48:21;;;;;;;2.30;0.52;;;;;;;-3.44;77.78;101871.56;5021772;28;20125;-84
2024/01/21 03:50:50;;;;;;;7.60;1.40;;;;;;;-3.39;78.20;101857.31;5024913;28;20568;-85
2024/01/21 03:53:17;;;;;;;4.43;0.43;;;;;;;-3.36;77.88;101859.13;5027948;28;20046;-85
2024/01/21 03:55:43;;;;;;;5.35;0.40;;;;;;;-3.32;78.53;101843.16;5019410;28;20125;-84
2024/01/21 03:58:10;;;;;;;3.90;0.50;;;;;;;-3.28;78.29;101838.28;5021615;28;20125;-84
2024/01/21 04:00:37;;;;;;;2.30;0.40;;;;;;;-3.24;78.09;101838.44;5017022;28;20480;-85
2024/01/21 04:03:04;;;;;;;2.65;0.50;;;;;;;-3.20;78.30;101846.31;5025635;28;20656;-85
2024/01/21 04:05:31;;;;;;;4.20;0.73;;;;;;;-3.17;78.75;101843.91;5027442;28;20107;-85
2024/01/21 04:08:00;;;;;;;2.85;0.40;;;;;;;-3.10;78.68;101847.69;5030836;28;20133;-84
2024/01/21 04:10:28;;;;;;;4.20;0.60;;;;;;;-3.07;78.24;101845.28;5025691;28;20436;-77
2024/01/21 04:12:55;;;;;;;3.83;0.30;;;;;;;-3.04;78.20;101843.75;5008771;28;20394;-76
2024/01/21 04:15:22;;;;;;;3.83;0.40;;;;;;;-2.98;78.89;101839.72;5009842;28;20139;-76
2024/01/21 04:17:48;;;;;;;5.22;0.35;;;;;;;-2.95;79.00;101833.06;5017826;28;20598;-78
2024/01/21 04:20:15;;;;;;;6.38;0.30;;;;;;;-2.91;78.35;101828.97;5019090;28;20149;-78
2024/01/21 04:22:42;;;;;;;3.90;0.30;;;;;;;-2.87;78.63;101830.91;5006392;28;20078;-76
2024/01/21 04:25:11;;;;;;;3.95;0.45;;;;;;;-2.84;79.00;101814.00;5014776;28;20061;-76
2024/01/21 04:27:38;;;;;;;1.00;0.32;;;;;;;-2.79;79.45;101819.34;5010322;28;20573;-76
2024/01/21 04:30:06;;;;;;;2.25;0.38;;;;;;;-2.75;79.31;101811.00;5006820;28;20193;-75
2024/01/21 04:32:33;;;;;;;3.80;0.30;;;;;;;-2.71;79.72;101812.88;5011116;28;20133;-74
2024/01/21 04:35:00;;;;;;;2.50;0.30;;;;;;;-2.67;79.39;101813.94;5018743;28;20599;-75
2024/01/21 04:37:27;;;;;;;1.48;0.20;;;;;;;-2.63;79.39;101795.31;5017401;28;20141;-75
2024/01/21 04:39:54;;;;;;;4.35;0.43;;;;;;;-2.60;79.62;101801.47;5019725;28;20603;-75
2024/01/21 04:42:22;;;;;;;4.88;0.20;;;;;;;-2.55;79.06;101794.00;5015831;28;20129;-75
2024/01/21 04:44:49;;;;;;;1.27;0.30;;;;;;;-2.51;79.63;101787.34;5015571;28;20682;-75
2024/01/21 04:47:16;;;;;;;0.77;0.20;;;;;;;-2.48;79.76;101788.38;5016975;28;20073;-74
2024/01/21 04:49:42;;;;;;;0.40;0.20;;;;;;;-2.43;80.18;101793.69;5016405;28;20473;-74
2024/01/21 04:52:09;;;;;;;1.15;0.10;;;;;;;-2.40;80.24;101783.59;5014670;28;20128;-75
2024/01/21 04:54:36;;;;;;;1.35;0.10;;;;;;;-2.37;80.21;101782.06;5015989;28;20049;-74
2024/01/21 04:57:04;;;;;;;2.78;0.20;;;;;;;-2.32;80.85;101779.69;5016347;28;20058;-74
2024/01/21 04:59:32;;;;;;;0.43;0.10;;;;;;;-2.28;80.96;101773.00;5015427;28;20077;-74
2024/01/21 05:01:59;;;;;;;0.55;0.10;;;;;;;-2.24;80.69;101765.53;5012479;28;20140;-74
2024/01/21 05:04:26;;;;;;;0.13;0.10;;;;;;;-2.22;81.01;101766.50;5017729;28;20132;-74
2024/01/21 05:06:53;;;;;;;2.10;0.20;;;;;;;-2.16;80.39;101758.22;5006916;28;20595;-75
2024/01/21 05:09:20;;;;;;;0.28;0.17;;;;;;;-2.11;80.27;101753.28;5010310;28;20546;-75
2024/01/21 05:11:47;;;;;;;1.33;0.15;;;;;;;-2.08;80.41;101756.88;5014977;28;20184;-75
2024/01/21 05:14:14;;;;;;;1.00;0.10;;;;;;;-2.04;80.94;101737.34;5016538;28;20473;-75
2024/01/21 05:16:42;;;;;;;0.15;0.00;;;;;;;-2.01;81.52;101738.38;5018320;28;20783;-75
2024/01/21 05:19:11;;;;;;;0.30;0.08;;;;;;;-1.98;80.56;101728.25;5017106;28;20573;-72
2024/01/21 05:21:38;;;;;;;0.00;0.00;;;;;;;-1.95;80.63;101723.25;5017806;28;20128;-71
2024/01/21 05:24:05;;;;;;;0.85;0.00;;;;;;;-1.91;81.55;101716.59;5017328;28;20160;-71
2024/01/21 05:26:32;;;;;;;0.15;0.10;;;;;;;-1.86;81.70;101716.75;5018224;28;20475;-71
2024/01/21 05:29:00;;;;;;;0.45;0.10;;;;;;;-1.83;81.32;101715.19;5020615;28;20085;-71
2024/01/21 05:31:31;;;;;;;0.65;0.10;;;;;;;-1.77;81.32;101712.91;5016527;28;20608;-71
2024/01/21 05:34:00;;;;;;;0.65;0.00;;;;;;;-1.74;81.38;101713.03;5020378;28;20046;-72
2024/01/21 05:36:27;;;;;;;0.10;0.10;;;;;;;-1.71;81.32;101713.19;5016923;28;20140;-71
2024/01/21 05:38:54;;;;;;;2.67;0.00;;;;;;;-1.67;81.15;101709.03;5021073;28;20567;-71
2024/01/21 05:41:21;;;;;;;0.55;0.10;;;;;;;-1.63;81.04;101704.91;5034438;28;20120;-80
2024/01/21 05:43:47;;;;;;;0.40;0.10;;;;;;;-1.60;81.10;101697.34;5028469;28;20129;-80
2024/01/21 05:46:14;;;;;;;0.25;0.25;;;;;;;-1.57;81.63;101689.75;5033863;28;20120;-80
2024/01/21 05:48:41;;;;;;;0.77;0.00;;;;;;;-1.53;81.37;101694.22;5025555;28;20084;-80
2024/01/21 05:51:10;;;;;;;0.25;0.00;;;;;;;-1.50;81.26;101691.78;5016392;28;20552;-81
2024/01/21 05:53:37;;;;;;;0.22;0.10;;;;;;;-1.48;81.66;101682.47;5019498;28;20141;-80
2024/01/21 05:56:04;;;;;;;1.27;0.10;;;;;;;-1.44;81.79;101675.75;5022483;28;20559;-81
2024/01/21 05:58:31;;;;;;;0.77;0.05;;;;;;;-1.41;81.41;101681.00;5021839;28;20562;-81
2024/01/21 06:00:57;;;;;;;0.30;0.10;;;;;;;-1.38;81.67;101678.56;5032325;28;20045;-80
2024/01/21 06:03:24;;;;;;;0.10;0.00;;;;;;;-1.35;81.81;101666.72;5029855;28;20459;-80
2024/01/21 06:05:51;;;;;;;1.55;0.10;;;;;;;-1.33;81.90;101665.09;5026327;28;20125;-80
2024/01/21 06:08:20;;;;;;;2.28;0.10;;;;;;;-1.29;81.73;101658.38;5020270;28;20125;-80
2024/01/21 06:10:47;;;;;;;0.55;0.10;;;;;;;-1.28;81.40;101645.63;5029002;28;20092;-80
2024/01/21 06:13:13;;;;;;;2.72;0.30;;;;;;;-1.25;82.25;101640.63;5019707;28;20133;-80
2024/01/21 06:15:40;;;;;;;3.00;0.30;;;;;;;-1.21;82.05;101648.44;5029318;28;20084;-80
2024/01/21 06:18:07;;;;;;;0.10;0.10;;;;;;;-1.19;81.79;101646.81;5026897;28;20128;-83
2024/01/21 06:20:34;;;;;;;0.68;0.10;;;;;;;-1.23;81.85;101636.44;5021918;28;20132;-84
2024/01/21 06:23:01;;;;;;;0.20;0.20;;;;;;;-1.15;82.39;101640.97;5016226;28;20492;-76
2024/01/21 06:25:29;;;;;;;1.58;0.20;;;;;;;-1.13;82.45;101647.91;5020597;28;20128;-73
2024/01/21 06:27:57;;;;;;;1.58;0.20;;;;;;;-1.09;82.33;101643.78;5014907;28;20803;-73
2024/01/21 06:30:24;;;;;;;0.57;0.10;;;;;;;-1.06;81.92;101643.88;5021076;28;20050;-80
2024/01/21 06:32:51;;;;;;;0.20;0.10;;;;;;;-1.05;81.79;101627.69;5025039;28;20572;-81
2024/01/21 06:35:17;;;;;;;2.53;0.30;;;;;;;-1.03;82.03;101634.63;5011226;28;20125;-83
2024/01/21 06:37:44;;;;;;;1.30;0.20;;;;;;;-1.01;81.46;101629.53;5025341;28;20132;-76
2024/01/21 06:40:11;;;;;;;0.28;0.10;;;;;;;-0.99;81.66;101620.19;5019367;28;20134;-77
2024/01/21 06:42:40;;;;;;;0.70;0.13;;;;;;;-0.97;81.62;101616.00;5024987;28;20704;-76
2024/01/21 06:45:08;;;;;;;0.20;0.10;;;;;;;-0.94;82.18;101618.69;5029038;28;20077;-78
2024/01/21 06:47:35;;;;;;;1.45;0.20;;;;;;;-0.92;81.83;101619.59;5022342;28;20080;-81
2024/01/21 06:50:02;;;;;;;0.20;0.20;;;;;;;-0.93;81.93;101609.28;5013448;28;20128;-76
2024/01/21 06:52:29;;;;;;;1.42;0.28;;;;;;;-0.87;82.45;101619.78;5018999;28;20520;-75
2024/01/21 06:54:57;;;;;;;4.68;0.20;;;;;;;-0.86;82.21;101612.16;5022144;28;21373;-74
2024/01/21 06:57:24;;;;;;;2.83;0.22;;;;;;;-0.84;81.50;101610.50;5018724;28;20124;-74
2024/01/21 06:59:52;;;;;;;1.92;0.60;;;;;;;-0.82;82.24;101608.88;5018820;28;20156;-75
2024/01/21 07:02:19;;;;;;;2.30;0.40;;;;;;;-0.81;81.91;101610.59;5014954;28;20129;-75
2024/01/21 07:04:46;;;;;;;1.77;0.30;;;;;;;-0.79;81.91;101603.84;5013280;28;20150;-75
2024/01/21 07:07:13;;;;;;;0.73;0.30;;;;;;;-0.78;81.84;101595.28;5021482;28;20571;-76
2024/01/21 07:09:41;;;;;;;2.05;0.35;;;;;;;-0.76;81.57;101597.06;5021377;28;20145;-75
2024/01/21 07:12:08;;;;;;;2.30;0.22;;;;;;;-0.75;81.92;101594.53;5017322;28;20060;-76
2024/01/21 07:14:35;;;;;;;1.02;0.30;;;;;;;-0.73;81.43;101598.03;5016758;28;20092;-75
2024/01/21 07:17:04;;;;;;;1.15;0.30;;;;;;;-0.71;81.61;101595.56;5010932;28;20136;-76
2024/01/21 07:19:31;;;;;;;1.30;0.43;;;;;;;-0.69;82.05;101596.47;5019274;28;20053;-75
2024/01/21 07:21:58;;;;;;;2.90;0.65;;;;;;;-0.68;82.37;101598.22;5017465;28;20115;-75
2024/01/21 07:24:25;;;;;;;0.70;0.50;;;;;;;-0.66;82.29;101594.91;5010844;28;20116;-75
2024/01/21 07:26:52;;;;;;;4.10;2.17;;;;;;;-0.65;81.65;101600.91;5017290;28;20041;-77
2024/01/21 07:29:19;;;;;;;2.88;0.63;;;;;;;-0.64;81.92;101592.38;5021267;28;20129;-77
2024/01/21 07:31:46;;;;;;;0.70;0.50;;;;;;;-0.62;82.09;101595.88;5020811;28;20120;-76
2024/01/21 07:34:14;;;;;;;2.25;0.50;;;;;;;-0.61;81.82;101600.19;5013824;28;20491;-75
2024/01/21 07:36:41;;;;;;;1.85;0.60;;;;;;;-0.68;82.14;101575.97;5019577;28;20136;-74
2024/01/21 07:39:08;;;;;;;1.33;0.40;;;;;;;-0.59;81.85;101595.97;4987702;28;20128;-74
2024/01/21 07:41:35;;;;;;;2.40;0.52;;;;;;;-0.58;81.87;101593.44;5011755;28;20106;-76
2024/01/21 07:44:02;;;;;;;1.80;0.88;;;;;;;-0.58;82.27;101583.16;5014482;28;20077;-76
2024/01/21 07:46:29;;;;;;;1.10;0.40;;;;;;;-0.55;81.49;101593.56;5010635;28;20081;-75
2024/01/21 07:48:56;;;;;;;1.92;0.38;;;;;;;-0.55;82.05;101592.69;5017730;28;20128;-77
2024/01/21 07:51:24;;;;;;;0.82;0.40;;;;;;;-0.53;81.79;101580.78;5023124;28;20045;-74
2024/01/21 07:53:52;;;;;;;1.20;0.85;;;;;;;-0.52;81.66;101582.50;5008829;28;20133;-76
2024/01/21 07:56:19;;;;;;;1.33;0.52;;;;;;;-0.51;82.13;101576.56;5015202;28;20496;-79
2024/01/21 07:58:46;;;;;;;0.93;0.40;;;;;;;-0.51;82.48;101579.16;5017855;28;20096;-77
2024/01/21 08:01:13;;;;;;;0.57;0.38;;;;;;;-0.48;82.14;101581.81;5016263;28;20393;-80
2024/01/21 08:03:40;;;;;;;3.00;0.50;;;;;;;-0.50;82.06;101575.75;5026481;28;20049;-81
2024/01/21 08:06:08;;;;;;;0.73;0.50;;;;;;;-0.46;82.25;101572.47;5023820;28;20781;-81
2024/01/21 08:08:37;;;;;;;1.48;0.50;;;;;;;-0.43;81.62;101577.72;5012458;28;20562;-80
2024/01/21 08:11:04;;;;;;;2.60;0.60;;;;;;;-0.42;81.93;101576.88;5017589;28;20180;-79
2024/01/21 08:13:32;;;;;;;2.40;0.88;;;;;;;-0.42;82.37;101574.31;5028542;28;20414;-80
2024/01/21 08:15:59;;;;;;;1.77;0.50;;;;;;;-0.40;82.73;101580.41;5015682;28;20077;-80
2024/01/21 08:18:26;;;;;;;0.60;0.50;;;;;;;-0.38;82.19;101573.59;5028588;28;20124;-79
2024/01/21 08:20:53;;;;;;;1.42;0.50;;;;;;;-0.38;81.97;101572.72;5019737;28;20088;-80
2024/01/21 08:23:20;;;;;;;1.38;0.52;;;;;;;-0.34;82.73;101580.59;5025237;28;20121;-80
2024/01/21 08:25:48;;;;;;;1.58;0.45;;;;;;;-0.36;82.07;101571.97;5020753;28;20045;-80
2024/01/21 08:28:15;;;;;;;2.88;0.60;;;;;;;-0.31;82.10;101577.28;5009531;28;20631;-79
2024/01/21 08:30:42;;;;;;;1.40;0.50;;;;;;;-0.30;82.36;101573.00;5011670;28;20129;-81
2024/01/21 08:33:09;;;;;;;2.38;0.50;;;;;;;-0.28;82.27;101566.22;5026073;28;20429;-80
2024/01/21 08:35:37;;;;;;;3.20;0.85;;;;;;;-0.29;82.38;101560.16;5026791;28;20053;-79
2024/01/21 08:38:04;;;;;;;1.70;1.00;;;;;;;-0.26;82.51;101578.31;5022848;28;20500;-77
2024/01/21 08:40:31;;;;;;;3.83;0.70;;;;;;;-0.26;82.06;101550.03;5022242;28;20567;-79
2024/01/21 08:42:59;;;;;;;4.25;1.67;;;;;;;-0.24;82.37;101548.34;5017083;28;20046;-77
2024/01/21 08:45:26;;;;;;;2.40;0.88;;;;;;;-0.23;81.87;101546.66;5018639;28;20452;-78
2024/01/21 08:47:53;;;;;;;4.60;0.93;;;;;;;-0.21;82.34;101548.44;5021471;28;20137;-77
2024/01/21 08:50:20;;;;;;;2.47;1.02;;;;;;;-0.24;82.87;101543.22;5017661;28;20116;-74
2024/01/21 08:52:47;;;;;;;4.07;1.35;;;;;;;-0.17;82.21;101552.91;5017963;28;20077;-74
2024/01/21 08:55:14;;;;;;;2.53;0.85;;;;;;;-0.15;82.88;101547.78;5015628;28;20056;-74
2024/01/21 08:57:41;;;;;;;4.15;1.42;;;;;;;-0.14;82.60;101549.56;5017790;28;20115;-72
2024/01/21 09:00:11;;;;;;;5.57;1.35;;;;;;;-0.13;82.57;101541.00;5017077;28;20080;-73
2024/01/21 09:02:38;;;;;;;3.35;1.77;;;;;;;-0.11;82.21;101545.38;5010329;28;20096;-73
2024/01/21 09:05:05;;;;;;;2.30;1.10;;;;;;;-0.10;82.80;101547.13;5015523;28;20158;-74
2024/01/21 09:07:32;;;;;;;3.85;1.38;;;;;;;-0.08;82.45;101542.03;5007989;28;20132;-74
2024/01/21 09:09:59;;;;;;;4.30;0.80;;;;;;;-0.06;81.97;101537.81;5020003;28;20136;-74
2024/01/21 09:12:26;;;;;;;6.68;1.20;;;;;;;-0.04;82.56;101540.44;5019341;28;20545;-75
2024/01/21 09:14:53;;;;;;;4.47;1.17;;;;;;;-0.03;82.45;101535.34;5018133;28;20140;-74
2024/01/21 09:17:21;;;;;;;3.67;0.98;;;;;;;-0.01;82.37;101533.69;5020674;28;20500;-75
2024/01/21 09:19:48;;;;;;;4.72;1.67;;;;;;;0.00;82.58;101538.03;5017390;28;20081;-74
2024/01/21 09:22:15;;;;;;;1.65;1.13;;;;;;;0.00;82.47;101527.72;5014160;28;20129;-74
2024/01/21 09:24:42;;;;;;;4.50;0.80;;;;;;;0.04;82.40;101539.84;5012017;28;20115;-75
2024/01/21 09:27:09;;;;;;;2.25;1.10;;;;;;;0.06;82.70;101530.50;5020306;28;20085;-75
2024/01/21 09:29:36;;;;;;;5.50;1.30;;;;;;;0.08;81.99;101526.28;5018919;28;20089;-74
2024/01/21 09:32:03;;;;;;;4.65;1.00;;;;;;;0.11;82.00;101522.91;5020558;28;20050;-75
2024/01/21 09:34:31;;;;;;;4.15;1.10;;;;;;;0.10;82.35;101516.91;5021394;28;20128;-74
2024/01/21 09:36:58;;;;;;;6.97;1.17;;;;;;;0.13;82.26;101511.84;5023066;28;20129;-75
2024/01/21 09:39:26;;;;;;;4.00;1.10;;;;;;;0.18;81.91;101513.72;5018770;28;20045;-74
2024/01/21 09:41:53;;;;;;;3.72;0.80;;;;;;;0.19;81.97;101513.75;5021910;28;20054;-74
2024/01/21 09:44:21;;;;;;;7.38;1.30;;;;;;;0.22;82.48;101515.53;5016847;28;20126;-74
2024/01/21 09:46:53;;;;;;;3.70;1.60;;;;;;;0.25;82.12;101513.06;5018629;28;20156;-74
2024/01/21 09:49:21;;;;;;;4.85;1.20;;;;;;;0.26;81.91;101509.69;5018218;28;20176;-75
2024/01/21 09:51:50;;;;;;;4.05;1.35;;;;;;;0.28;82.14;101503.75;5013391;28;20133;-75
2024/01/21 09:54:17;;;;;;;3.15;1.35;;;;;;;0.27;82.00;101485.69;5017475;28;20563;-74
2024/01/21 09:56:44;;;;;;;4.25;1.40;;;;;;;0.32;81.97;101491.84;5017024;28;20056;-75
2024/01/21 09:59:12;;;;;;;4.47;1.13;;;;;;;0.33;81.99;101501.31;5012816;28;20094;-75
2024/01/21 10:01:40;;;;;;;3.95;0.60;;;;;;;0.35;82.08;101500.53;5019050;28;20229;-75
2024/01/21 10:04:07;;;;;;;2.03;0.93;;;;;;;0.37;82.33;101492.88;5017119;28;20498;-75
2024/01/21 10:06:35;;;;;;;5.30;1.50;;;;;;;0.38;81.86;101489.47;5013069;28;20145;-76
2024/01/21 10:09:14;;;;;;;1.58;0.80;;;;;;;0.41;81.88;101483.53;5012251;28;20045;-75
2024/01/21 10:11:41;;;;;;;3.30;1.17;;;;;;;0.42;81.89;101486.13;5018304;28;20488;-75
2024/01/21 10:14:08;;;;;;;3.15;1.33;;;;;;;0.44;82.14;101492.22;5008871;28;20627;-75
2024/01/21 10:16:35;;;;;;;2.65;0.80;;;;;;;0.46;82.12;101493.13;5013783;28;20073;-79
2024/01/21 10:19:04;;;;;;;4.72;1.10;;;;;;;0.48;82.08;101485.44;5009490;28;20133;-75
2024/01/21 10:21:31;;;;;;;4.03;1.00;;;;;;;0.49;81.88;101480.34;5007413;28;20385;-72
2024/01/21 10:23:58;;;;;;;6.97;2.55;;;;;;;0.50;81.75;101487.25;5019104;28;20053;-76
2024/01/21 10:26:26;;;;;;;4.32;1.33;;;;;;;0.53;81.48;101473.59;5016998;28;20132;-74
2024/01/21 10:28:53;;;;;;;3.40;2.58;;;;;;;0.54;81.98;101471.06;5016680;28;20144;-73
2024/01/21 10:31:20;;;;;;;6.43;2.38;;;;;;;0.55;81.37;101477.09;5008503;28;20578;-73
2024/01/21 10:33:47;;;;;;;3.40;1.50;;;;;;;0.56;81.85;101477.13;5013123;28;20132;-73
2024/01/21 10:36:15;;;;;;;4.65;1.40;;;;;;;0.58;81.72;101472.03;5010379;28;20061;-74
2024/01/21 10:38:52;;;;;;;4.53;1.83;;;;;;;0.58;81.63;101470.31;5020088;28;20956;-73
2024/01/21 10:41:30;;;;;;;4.70;2.78;;;;;;;0.60;81.47;101474.66;5014566;28;20124;-74
2024/01/21 10:43:59;;;;;;;6.13;2.03;;;;;;;0.61;81.93;101466.09;5013887;28;20132;-73
2024/01/21 10:46:26;;;;;;;4.50;2.53;;;;;;;0.61;81.56;101459.25;5017386;28;20077;-73
2024/01/21 10:48:57;;;;;;;8.93;2.22;;;;;;;0.63;81.68;101462.75;5015829;28;20420;-73
2024/01/21 10:51:24;;;;;;;7.35;2.10;;;;;;;0.64;81.65;101464.47;5013333;28;20104;-73
2024/01/21 10:53:51;;;;;;;5.22;2.25;;;;;;;0.62;81.54;101460.97;5014780;28;20128;-73
2024/01/21 10:56:19;;;;;;;5.57;1.98;;;;;;;0.67;81.44;101468.84;5017115;28;20038;-73
2024/01/21 10:58:48;;;;;;;6.47;1.98;;;;;;;0.67;81.09;101456.84;5012567;28;20137;-73
2024/01/21 11:01:16;;;;;;;6.07;2.58;;;;;;;0.69;81.26;101464.63;5015777;28;20081;-73
2024/01/21 11:03:44;;;;;;;3.55;2.10;;;;;;;0.69;81.09;101454.31;5014197;28;20121;-72
2024/01/21 11:06:12;;;;;;;6.13;2.65;;;;;;;0.70;81.32;101461.19;5008664;28;20410;-73
2024/01/21 11:08:43;;;;;;;10.25;2.80;;;;;;;0.70;80.94;101451.78;5013992;28;20953;-72
2024/01/21 11:11:17;;;;;;;6.55;2.50;;;;;;;0.73;80.94;101456.13;5018678;28;20492;-74
2024/01/21 11:13:47;;;;;;;7.43;3.50;;;;;;;0.73;81.24;101453.56;5013919;28;20124;-74
2024/01/21 11:16:35;;;;;;;6.95;2.45;;;;;;;0.75;80.87;101449.34;5016374;28;20057;-74
2024/01/21 11:19:04;;;;;;;9.77;2.67;;;;;;;0.74;80.70;101456.19;5005562;28;20435;-75
2024/01/21 11:21:31;;;;;;;9.52;3.30;;;;;;;0.74;80.62;101447.59;5010785;28;20436;-74
2024/01/21 11:24:03;;;;;;;9.73;2.95;;;;;;;0.72;81.00;101438.94;5013879;28;20140;-74
2024/01/21 11:26:30;;;;;;;10.48;2.90;;;;;;;0.74;80.83;101438.16;5014650;28;20128;-75
2024/01/21 11:29:00;;;;;;;6.55;2.28;;;;;;;0.75;80.63;101434.75;5015761;28;20137;-75